Time;durP1;ratioP1;P1;durP2;ratioP2;P2;SDS_P1;SDS_P2;PMS_P1;PMS_P2;Temp;Humidity;BMP_temperature;BMP_pressure;BME280_temperature;BME280_humidity;BME280_pressure;Samples;Min_cycle;Max_cycle;Signal;HPM_P1;HPM_P2
2023/12/01 00:00:47;;;;;;;85.70;37.67;;;;;;;-141.97;100.00;46173.91;6188586;23;20147;-88
2023/12/01 00:03:13;;;;;;;85.53;39.20;;;;;;;-141.97;100.00;46120.13;6176951;23;20174;-90
2023/12/01 00:05:39;;;;;;;94.17;41.43;;;;;;;-141.97;100.00;46604.31;6167649;23;20146;-90
2023/12/01 00:08:04;;;;;;;93.57;41.37;;;;;;;-141.97;100.00;46104.75;6163496;23;20146;-89
2023/12/01 00:10:33;;;;;;;89.77;40.63;;;;;;;-141.97;100.00;46166.22;6167582;23;20390;-93
2023/12/01 00:13:02;;;;;;;117.63;44.80;;;;;;;-141.97;100.00;46525.53;6178145;23;20151;-93
2023/12/01 00:15:27;;;;;;;122.37;50.53;;;;;;;-141.97;100.00;46269.97;6185991;23;20393;-89
2023/12/01 00:17:53;;;;;;;100.13;42.50;;;;;;;-141.97;100.00;45999.09;6209411;23;20377;-91
2023/12/01 00:20:19;;;;;;;82.13;35.77;;;;;;;-141.97;100.00;46608.16;6173467;23;20292;-91
2023/12/01 00:22:44;;;;;;;65.97;28.70;;;;;;;-141.97;100.00;46442.91;6198803;23;20174;-91
2023/12/01 00:25:10;;;;;;;78.60;33.63;;;;;;;-141.97;100.00;46277.66;6175668;23;20170;-91
2023/12/01 00:27:36;;;;;;;76.63;33.77;;;;;;;-141.97;100.00;46277.66;6174666;23;20210;-91
2023/12/01 00:30:09;;;;;;;74.63;33.90;;;;;;;-141.97;100.00;46041.34;6177221;23;20156;-91
2023/12/01 00:32:38;;;;;;;70.73;32.93;;;;;;;-141.97;100.00;46596.63;6179337;23;20154;-91
2023/12/01 00:35:06;;;;;;;75.23;34.47;;;;;;;-141.97;100.00;46490.94;6180649;23;20528;-93
2023/12/01 00:37:32;;;;;;;73.10;33.43;;;;;;;-141.97;100.00;46231.56;6180290;23;20711;-92
2023/12/01 00:39:58;;;;;;;73.80;32.60;;;;;;;-141.97;100.00;46500.56;6181310;23;20362;-92
2023/12/01 00:42:25;;;;;;;77.33;34.83;;;;;;;-141.97;100.00;46029.81;6207070;23;20200;-91
2023/12/01 00:44:56;;;;;;;75.23;34.93;;;;;;;-141.97;100.00;46116.28;6205463;23;20154;-90
2023/12/01 00:47:21;;;;;;;71.93;34.33;;;;;;;-141.97;100.00;46079.78;6177351;23;20373;-91
2023/12/01 00:49:50;;;;;;;82.77;35.53;;;;;;;-141.97;100.00;46062.47;6179018;23;20453;-91
2023/12/01 00:52:16;;;;;;;76.60;34.43;;;;;;;-141.97;100.00;46031.75;6176902;23;20201;-91
2023/12/01 00:54:47;;;;;;;71.03;33.33;;;;;;;-141.97;100.00;46002.94;6177228;23;20381;-93
2023/12/01 00:57:13;;;;;;;63.97;31.50;;;;;;;-141.97;100.00;46275.75;6177571;23;20170;-93
2023/12/01 00:59:39;;;;;;;72.20;32.77;;;;;;;-141.97;100.00;46187.38;6150098;23;20398;-91
2023/12/01 01:02:04;;;;;;;69.33;32.73;;;;;;;-141.97;100.00;45974.09;6137087;23;20443;-90
2023/12/01 01:04:30;;;;;;;70.47;32.17;;;;;;;-141.97;100.00;46245.00;6161196;23;20170;-88
2023/12/01 01:06:55;;;;;;;69.53;33.00;;;;;;;-141.97;100.00;46464.03;6162585;23;20159;-90
2023/12/01 01:09:21;;;;;;;68.63;32.90;;;;;;;-141.97;100.00;46066.31;6130012;23;20151;-89
2023/12/01 01:11:46;;;;;;;70.97;32.50;;;;;;;-141.97;100.00;46502.47;6155736;23;20584;-88
2023/12/01 01:14:12;;;;;;;69.90;31.87;;;;;;;-141.97;100.00;46283.44;6154889;23;20218;-88
2023/12/01 01:16:38;;;;;;;63.63;30.87;;;;;;;-141.97;100.00;46686.94;6154709;23;20492;-87
2023/12/01 01:19:03;;;;;;;67.63;31.70;;;;;;;-141.97;100.00;46625.44;6154698;23;20401;-89
2023/12/01 01:21:32;;;;;;;65.80;31.27;;;;;;;-141.97;100.00;46177.75;6143749;23;20165;-90
2023/12/01 01:23:57;;;;;;;68.57;31.13;;;;;;;-141.97;100.00;45889.56;6172074;23;20171;-91
2023/12/01 01:26:23;;;;;;;64.93;30.50;;;;;;;-141.97;100.00;46054.81;6171391;23;20389;-93
2023/12/01 01:28:49;;;;;;;67.50;31.27;;;;;;;-141.97;100.00;46058.63;6170837;23;20150;-93
2023/12/01 01:31:14;;;;;;;62.07;30.60;;;;;;;-141.97;100.00;46131.66;6145666;23;20216;-92
2023/12/01 01:33:40;;;;;;;66.30;31.20;;;;;;;-141.97;100.00;46246.94;6144817;23;20139;-91
2023/12/01 01:36:06;;;;;;;66.63;28.47;;;;;;;-141.97;100.00;46054.81;6141660;23;20219;-91
2023/12/01 01:38:32;;;;;;;69.60;30.50;;;;;;;-141.97;100.00;46120.13;6138915;23;20147;-91
2023/12/01 01:40:57;;;;;;;64.33;30.70;;;;;;;-141.97;100.00;46569.72;6163132;23;20403;-91
2023/12/01 01:43:24;;;;;;;65.90;30.17;;;;;;;-141.97;100.00;46125.88;6165023;23;20645;-92
2023/12/01 01:46:00;;;;;;;68.33;30.07;;;;;;;-141.97;100.00;46469.81;6160562;23;20166;-91
2023/12/01 01:48:27;;;;;;;66.70;28.83;;;;;;;-141.97;100.00;46673.47;6135361;23;20379;-91
2023/12/01 01:50:53;;;;;;;71.20;32.60;;;;;;;-141.97;100.00;46569.72;6161876;23;20472;-92
2023/12/01 01:53:19;;;;;;;67.70;31.03;;;;;;;-141.97;100.00;46548.59;6160966;23;20374;-91
2023/12/01 01:55:48;;;;;;;70.57;32.97;;;;;;;-141.97;100.00;46494.78;6139314;23;20371;-90
2023/12/01 01:58:13;;;;;;;73.73;34.57;;;;;;;-141.97;100.00;45933.75;6165888;23;20582;-92
2023/12/01 02:00:39;;;;;;;75.13;35.53;;;;;;;-141.97;100.00;46043.28;6155695;23;20445;-91
2023/12/01 02:03:05;;;;;;;101.20;40.33;;;;;;;-141.97;100.00;46339.16;6155630;23;20178;-92
2023/12/01 02:05:33;;;;;;;73.67;34.57;;;;;;;-141.97;100.00;46260.38;6156368;23;20135;-92
2023/12/01 02:08:29;;;;;;;81.40;35.57;;;;;;;-141.97;100.00;46108.59;6156399;23;20147;-91
2023/12/01 02:10:56;;;;;;;71.33;32.97;;;;;;;-141.97;100.00;45981.78;6154760;23;20449;-89
2023/12/01 02:13:23;;;;;;;66.13;31.30;;;;;;;-141.97;100.00;46266.13;6144052;23;20382;-93
2023/12/01 02:15:49;;;;;;;65.17;31.50;;;;;;;-141.97;100.00;46147.03;6133170;23;20390;-93
2023/12/01 02:18:33;;;;;;;67.43;30.43;;;;;;;-141.97;100.00;46533.22;6132999;23;20375;-92
2023/12/01 02:20:59;;;;;;;62.23;30.30;;;;;;;-141.97;100.00;46064.41;6134033;23;20382;-91
2023/12/01 02:23:26;;;;;;;65.20;28.83;;;;;;;-141.97;100.00;46269.97;6134093;23;20903;-91
2023/12/01 02:25:52;;;;;;;69.57;30.30;;;;;;;-141.97;100.00;46227.72;6134124;23;20370;-91
2023/12/01 02:28:17;;;;;;;68.07;30.20;;;;;;;-141.97;100.00;46195.06;6134026;23;20367;-92
2023/12/01 02:30:48;;;;;;;58.90;28.63;;;;;;;-141.97;100.00;46650.44;6134547;23;20181;-92
2023/12/01 02:33:21;;;;;;;61.10;29.17;;;;;;;-141.97;100.00;46250.78;6134180;23;20146;-91
2023/12/01 02:35:47;;;;;;;60.73;29.63;;;;;;;-141.97;100.00;46239.25;6135680;23;20409;-91
2023/12/01 02:38:13;;;;;;;63.17;29.27;;;;;;;-141.97;100.00;46100.91;6135227;23;20394;-91
2023/12/01 02:40:42;;;;;;;58.43;27.10;;;;;;;-141.97;100.00;46177.75;6136045;23;20704;-90
2023/12/01 02:43:10;;;;;;;62.90;29.00;;;;;;;-141.97;100.00;46164.31;6132151;23;20573;-91
2023/12/01 02:45:36;;;;;;;62.53;29.40;;;;;;;-141.97;100.00;46360.28;6158609;23;20389;-92
2023/12/01 02:48:01;;;;;;;68.53;29.93;;;;;;;-141.97;100.00;46081.69;6132333;23;20387;-92
2023/12/01 02:50:27;;;;;;;67.67;29.77;;;;;;;-141.97;100.00;46281.50;6157679;23;20155;-91
2023/12/01 02:52:52;;;;;;;69.27;30.50;;;;;;;-141.97;100.00;45951.06;6134023;23;20497;-91
2023/12/01 02:55:18;;;;;;;65.37;30.37;;;;;;;-141.97;100.00;45947.22;6135524;23;20150;-91
2023/12/01 02:57:43;;;;;;;72.20;31.80;;;;;;;-141.97;100.00;45912.63;6134419;23;20147;-91
2023/12/01 03:00:13;;;;;;;67.03;30.53;;;;;;;-141.97;100.00;46465.97;6132875;23;20155;-92
2023/12/01 03:02:42;;;;;;;66.70;29.50;;;;;;;-141.97;100.00;46185.44;6159500;23;20135;-92
2023/12/01 03:05:09;;;;;;;65.43;29.83;;;;;;;-141.97;100.00;46275.75;6134164;23;20829;-91
2023/12/01 03:07:39;;;;;;;57.77;27.87;;;;;;;-141.97;100.00;46243.09;6136122;23;20382;-91
2023/12/01 03:10:09;;;;;;;62.17;27.60;;;;;;;-141.97;100.00;46254.59;6170146;23;20375;-93
2023/12/01 03:12:38;;;;;;;58.70;27.00;;;;;;;-141.97;100.00;46277.66;6161312;23;20440;-93
2023/12/01 03:15:07;;;;;;;58.30;26.90;;;;;;;-141.97;100.00;46064.41;6152794;23;20406;-92
2023/12/01 03:17:35;;;;;;;56.73;26.00;;;;;;;-141.97;100.00;46097.06;6175897;23;20485;-93
2023/12/01 03:20:07;;;;;;;62.53;27.83;;;;;;;-141.97;100.00;46640.81;6195416;23;20451;-91
2023/12/01 03:22:39;;;;;;;55.23;26.97;;;;;;;-141.97;100.00;46339.16;6193761;23;20386;-92
2023/12/01 03:25:12;;;;;;;55.80;26.80;;;;;;;-141.97;100.00;46506.31;6200056;23;20385;-92
2023/12/01 03:27:45;;;;;;;51.20;25.13;;;;;;;-141.97;100.00;46093.22;6192297;23;20390;-92
2023/12/01 03:30:18;;;;;;;59.47;28.30;;;;;;;-141.97;100.00;45951.06;6194071;23;20385;-92
2023/12/01 03:32:53;;;;;;;54.87;26.00;;;;;;;-141.97;100.00;46291.13;6128978;23;20872;-92
2023/12/01 03:35:22;;;;;;;61.93;29.37;;;;;;;-141.97;100.00;46262.28;6125438;23;21169;-88
2023/12/01 03:37:49;;;;;;;56.53;27.50;;;;;;;-141.97;100.00;46273.81;6100831;23;20405;-90
2023/12/01 03:40:15;;;;;;;59.57;27.97;;;;;;;-141.97;100.00;46258.44;6125865;23;20418;-89
2023/12/01 03:42:44;;;;;;;66.10;29.57;;;;;;;-141.97;100.00;46062.47;6127143;23;20375;-89
2023/12/01 03:45:14;;;;;;;60.50;28.10;;;;;;;-141.97;100.00;46540.91;6133470;23;20372;-93
2023/12/01 03:47:46;;;;;;;57.80;26.33;;;;;;;-141.97;100.00;46454.44;6118179;23;20375;-93
2023/12/01 03:50:13;;;;;;;59.53;26.87;;;;;;;-141.97;100.00;46283.44;6118813;23;20379;-93
2023/12/01 03:52:46;;;;;;;58.60;27.00;;;;;;;-141.97;100.00;46212.34;6119241;23;20782;-94
2023/12/01 03:55:12;;;;;;;57.97;26.00;;;;;;;-141.97;100.00;46465.97;6118529;23;20375;-93
2023/12/01 03:57:45;;;;;;;56.67;26.60;;;;;;;-141.97;100.00;46097.06;6120563;23;20489;-93
2023/12/01 04:00:16;;;;;;;58.37;28.20;;;;;;;-141.97;100.00;46679.25;6125672;23;20391;-92
2023/12/01 04:02:54;;;;;;;61.93;28.93;;;;;;;-141.97;100.00;46081.69;6121748;23;20379;-92
2023/12/01 04:05:24;;;;;;;60.60;28.17;;;;;;;-141.97;100.00;46577.41;6119247;23;20391;-92
2023/12/01 04:07:53;;;;;;;64.60;29.13;;;;;;;-141.97;100.00;46062.47;6121199;23;20410;-93
2023/12/01 04:10:23;;;;;;;63.13;28.20;;;;;;;-141.97;100.00;46492.88;6139076;23;20417;-93
2023/12/01 04:12:48;;;;;;;74.37;36.47;;;;;;;-141.97;100.00;46043.28;6149730;23;20378;-92
2023/12/01 04:15:18;;;;;;;60.40;29.17;;;;;;;-141.97;100.00;46346.84;6150596;23;20437;-92
2023/12/01 04:17:50;;;;;;;62.37;29.37;;;;;;;-141.97;100.00;46269.97;6151848;23;20237;-92
2023/12/01 04:20:21;;;;;;;81.33;32.87;;;;;;;-141.97;100.00;45987.56;6147340;23;20422;-93
2023/12/01 04:22:48;;;;;;;74.13;33.23;;;;;;;-141.97;100.00;46304.56;6128076;23;20432;-92
2023/12/01 04:25:17;;;;;;;81.00;34.93;;;;;;;-141.97;100.00;46646.59;6149950;23;20800;-92
2023/12/01 04:27:45;;;;;;;69.57;32.37;;;;;;;-141.97;100.00;46047.13;6140463;23;20383;-93
2023/12/01 04:30:14;;;;;;;68.53;31.83;;;;;;;-141.97;100.00;46439.06;6127834;23;20486;-88
2023/12/01 04:32:45;;;;;;;67.13;30.23;;;;;;;-141.97;100.00;46604.31;6152435;23;20401;-89
2023/12/01 04:35:12;;;;;;;65.13;31.03;;;;;;;-141.97;100.00;46608.16;6133053;23;20443;-90
2023/12/01 04:37:38;;;;;;;76.53;33.80;;;;;;;-141.97;100.00;46123.97;6176629;23;20517;-91
2023/12/01 04:42:32;;;;;;;245.83;85.20;;;;;;;-141.97;100.00;46287.28;6133012;23;20427;-90
2023/12/01 04:44:57;;;;;;;127.33;43.93;;;;;;;-141.97;100.00;46220.03;6128628;23;20360;-90
2023/12/01 04:47:52;;;;;;;109.97;39.40;;;;;;;-141.97;100.00;45966.44;6100804;23;20147;-92
2023/12/01 04:54:14;;;;;;;;;;;;;;;;;;;;;
2023/12/01 04:57:09;;;;;;;;;;;;;;;;;;;;;
2023/12/01 04:59:48;;;;;;;80.40;32.50;;;;;;;-141.97;100.00;46304.56;5898613;24;20454;-92
2023/12/01 05:02:24;;;;;;;74.47;31.60;;;;;;;-141.97;100.00;46289.19;5900510;24;20397;-92
2023/12/01 05:05:15;;;;;;;60.70;29.03;;;;;;;-141.97;100.00;46035.59;5900317;24;20441;-92
2023/12/01 05:07:51;;;;;;;63.17;28.40;;;;;;;-141.97;100.00;46279.59;5880879;24;20418;-92
2023/12/01 05:10:38;;;;;;;59.57;28.87;;;;;;;-141.97;100.00;46289.19;5877535;24;20884;-93
2023/12/01 05:13:13;;;;;;;61.23;28.87;;;;;;;-141.97;100.00;46008.69;5886523;24;20494;-91
2023/12/01 05:15:40;;;;;;;76.63;36.00;;;;;;;-141.97;100.00;45962.59;5876288;24;20447;-91
2023/12/01 05:18:11;;;;;;;117.43;50.23;;;;;;;-141.97;100.00;46160.47;5824058;24;20401;-92
2023/12/01 05:21:33;;;;;;;110.20;46.50;;;;;;;-141.97;100.00;46177.75;5817684;24;20405;-91
2023/12/01 05:23:59;;;;;;;66.03;31.73;;;;;;;-141.97;100.00;46054.81;5769478;24;20448;-92
2023/12/01 05:26:25;;;;;;;56.43;28.73;;;;;;;-141.97;100.00;46537.06;5796359;24;20430;-91
2023/12/01 05:28:50;;;;;;;57.23;28.03;;;;;;;-141.97;100.00;46273.81;5773890;24;20155;-90
2023/12/01 05:31:38;;;;;;;69.03;31.60;;;;;;;-141.97;100.00;46148.94;5910659;24;20400;-88
2023/12/01 05:34:42;;;;;;;63.20;29.20;;;;;;;-141.97;100.00;46294.97;5922567;24;20160;-89
2023/12/01 05:41:27;;;;;;;;;;;;;;;;;;;;;
2023/12/01 05:45:11;;;;;;;;;;;;;;;;;;;;;
2023/12/01 05:47:46;;;;;;;72.23;34.83;;;;;;;-141.97;100.00;46285.34;5824877;24;20421;-88
2023/12/01 05:50:22;;;;;;;62.67;29.60;;;;;;;-141.97;100.00;46285.34;5825552;24;20398;-90
2023/12/01 06:00:56;;;;;;;;;;;;;;;;;;;;;
2023/12/01 06:03:27;;;;;;;100.37;41.23;;;;;;;-141.97;100.00;46677.31;5746358;24;20458;-90
2023/12/01 06:06:02;;;;;;;75.27;34.13;;;;;;;-141.97;100.00;46316.09;5740865;24;20400;-92
2023/12/01 06:08:32;;;;;;;52.57;24.40;;;;;;;-141.97;100.00;46208.50;5751728;25;20508;-90
2023/12/01 06:11:12;;;;;;;67.33;31.47;;;;;;;-141.97;100.00;46663.88;5736842;24;20399;-91
2023/12/01 06:13:38;;;;;;;50.33;25.17;;;;;;;-141.97;100.00;46304.56;5736957;24;20391;-90
2023/12/01 06:16:34;;;;;;;75.40;38.00;;;;;;;-141.97;100.00;46275.75;5756825;24;20395;-90
2023/12/01 06:22:56;;;;;;;;;;;;;;;;;;;;;
2023/12/01 06:25:29;;;;;;;77.90;38.10;;;;;;;-141.97;100.00;46172.00;5822671;24;20437;-91
2023/12/01 06:27:59;;;;;;;126.30;47.37;;;;;;;-141.97;100.00;45922.25;5821243;24;20404;-91
2023/12/01 06:30:29;;;;;;;86.67;37.77;;;;;;;-141.97;100.00;46308.41;5820686;24;20393;-90
2023/12/01 06:32:55;;;;;;;51.47;24.97;;;;;;;-141.97;100.00;46600.47;5854391;24;20387;-91
2023/12/01 06:35:21;;;;;;;51.97;25.43;;;;;;;-141.97;100.00;46060.56;5911960;24;20448;-91
2023/12/01 06:37:47;;;;;;;46.57;23.17;;;;;;;-141.97;100.00;46260.38;5889564;24;20314;-92
2023/12/01 06:40:17;;;;;;;44.43;24.40;;;;;;;-141.97;100.00;45966.44;5902025;24;20498;-91
2023/12/01 06:42:46;;;;;;;53.20;26.03;;;;;;;-141.97;100.00;46033.66;5923906;24;20408;-91
2023/12/01 06:45:13;;;;;;;144.10;60.57;;;;;;;-141.97;100.00;46612.00;5972447;24;20392;-92
2023/12/01 06:47:41;;;;;;;177.33;85.17;;;;;;;-141.97;100.00;46162.38;6006110;23;20436;-91
2023/12/01 06:50:09;;;;;;;287.83;140.67;;;;;;;-141.97;100.00;46496.72;6044653;23;20412;-91
2023/12/01 06:52:47;;;;;;;303.77;152.33;;;;;;;-141.97;100.00;46479.41;6048869;23;20382;-90
2023/12/01 06:55:13;;;;;;;308.80;146.30;;;;;;;-141.97;100.00;45958.75;6046569;23;20433;-92
2023/12/01 06:57:41;;;;;;;306.33;139.57;;;;;;;-141.97;100.00;46412.16;6050705;23;20373;-91
2023/12/01 07:00:29;;;;;;;203.57;98.33;;;;;;;-141.97;100.00;46006.78;6102852;23;20222;-90
2023/12/01 07:02:56;;;;;;;186.37;92.73;;;;;;;-141.97;100.00;46508.22;6112992;23;20390;-90
2023/12/01 07:05:47;;;;;;;226.87;115.90;;;;;;;-141.97;100.00;46221.94;6076375;23;20390;-91
2023/12/01 07:16:09;;;;;;;104.97;46.63;;;;;;;-141.97;100.00;46515.91;6212588;23;20457;-89
2023/12/01 07:18:57;;;;;;;77.30;39.27;;;;;;;-141.97;100.00;46035.59;6160323;23;20429;-91
2023/12/01 07:21:22;;;;;;;107.17;51.50;;;;;;;-141.97;100.00;45952.97;6130822;23;20421;-87
2023/12/01 07:23:50;;;;;;;75.60;37.00;;;;;;;-141.97;100.00;46127.81;6210479;22;20451;-91
2023/12/01 07:26:16;;;;;;;73.93;36.97;;;;;;;-141.97;100.00;46404.47;6176726;23;20216;-90
2023/12/01 07:28:41;;;;;;;96.53;46.43;;;;;;;-141.97;100.00;46177.75;6198028;23;20417;-89
2023/12/01 07:31:07;;;;;;;105.03;49.53;;;;;;;-141.97;100.00;46143.19;6184438;23;20497;-89
2023/12/01 07:33:32;;;;;;;84.87;41.50;;;;;;;-141.97;100.00;46089.38;6182377;23;20161;-89
2023/12/01 07:35:58;;;;;;;75.17;35.07;;;;;;;-141.97;100.00;46077.84;6180821;23;20522;-89
2023/12/01 07:38:23;;;;;;;77.93;38.77;;;;;;;-141.97;100.00;46175.84;6181148;23;20604;-90
2023/12/01 07:40:50;;;;;;;75.47;37.10;;;;;;;-141.97;100.00;46120.13;6181903;23;20229;-89
2023/12/01 07:43:16;;;;;;;68.23;32.47;;;;;;;-141.97;100.00;46239.25;6199330;23;20364;-88
2023/12/01 07:45:41;;;;;;;73.57;30.70;;;;;;;-141.97;100.00;46077.84;6209833;23;20400;-89
2023/12/01 07:48:09;;;;;;;64.17;27.83;;;;;;;-141.97;100.00;46227.72;6201052;23;20150;-88
2023/12/01 07:50:35;;;;;;;69.03;32.63;;;;;;;-141.97;100.00;46135.50;6193220;23;20185;-89
2023/12/01 07:53:04;;;;;;;125.23;55.67;;;;;;;-141.97;100.00;46227.72;6191506;23;20394;-89
2023/12/01 07:55:30;;;;;;;98.53;45.50;;;;;;;-141.97;100.00;46035.59;6184669;23;20149;-89
2023/12/01 07:57:55;;;;;;;106.77;52.90;;;;;;;-141.97;100.00;46077.84;6183068;23;20369;-89
2023/12/01 08:00:21;;;;;;;67.57;33.07;;;;;;;-141.97;100.00;46417.94;6184388;23;20153;-90
2023/12/01 08:02:51;;;;;;;53.13;24.30;;;;;;;-141.97;100.00;46594.69;6187165;23;20193;-88
2023/12/01 08:05:17;;;;;;;58.07;26.13;;;;;;;-141.97;100.00;46448.66;6183845;23;20498;-90
2023/12/01 08:07:51;;;;;;;62.23;28.53;;;;;;;-141.97;100.00;46346.84;6182878;23;20913;-88
2023/12/01 08:10:20;;;;;;;61.90;30.20;;;;;;;-141.97;100.00;45970.25;6184638;23;20511;-90
2023/12/01 08:12:47;;;;;;;70.87;30.73;;;;;;;-141.97;100.00;46448.66;6182792;23;20725;-89
2023/12/01 08:15:13;;;;;;;81.57;38.40;;;;;;;-141.97;100.00;46112.44;6184520;23;20370;-87
2023/12/01 08:17:39;;;;;;;115.67;60.90;;;;;;;-141.97;100.00;46398.72;6182775;23;20428;-88
2023/12/01 08:20:08;;;;;;;68.40;36.73;;;;;;;-141.97;100.00;46104.75;6183297;23;20150;-82
2023/12/01 08:22:37;;;;;;;62.40;32.97;;;;;;;-141.97;100.00;46004.84;6185819;23;20395;-82
2023/12/01 08:25:07;;;;;;;72.20;41.17;;;;;;;-141.97;100.00;46193.13;6181946;23;20503;-83
2023/12/01 08:27:33;;;;;;;81.50;39.07;;;;;;;-141.97;100.00;46260.38;6183660;23;20716;-84
2023/12/01 08:29:58;;;;;;;78.70;41.97;;;;;;;-141.97;100.00;46585.09;6182598;23;20472;-83
2023/12/01 08:32:24;;;;;;;61.30;32.67;;;;;;;-141.97;100.00;46054.81;6184078;23;20204;-82
2023/12/01 08:34:50;;;;;;;47.23;25.67;;;;;;;-141.97;100.00;46001.00;6184031;23;20544;-82
2023/12/01 08:37:16;;;;;;;49.70;26.03;;;;;;;-141.97;100.00;46183.53;6183871;23;20296;-82
2023/12/01 08:39:43;;;;;;;38.97;20.67;;;;;;;-141.97;100.00;46177.75;6183784;23;20188;-84
2023/12/01 08:42:09;;;;;;;52.00;28.90;;;;;;;-141.97;100.00;46158.53;6184324;23;20138;-82
2023/12/01 08:44:34;;;;;;;52.30;29.47;;;;;;;-141.97;100.00;46385.25;6184770;23;20425;-83
2023/12/01 08:46:59;;;;;;;40.70;21.30;;;;;;;-141.97;100.00;45945.28;6183965;23;20229;-83
2023/12/01 08:49:25;;;;;;;38.70;20.13;;;;;;;-141.97;100.00;46381.41;6186046;23;20146;-83
2023/12/01 08:51:54;;;;;;;75.20;39.10;;;;;;;-141.97;100.00;46127.81;6182207;23;20182;-82
2023/12/01 08:54:19;;;;;;;65.30;34.10;;;;;;;-141.97;100.00;46060.56;6183430;23;20177;-83
2023/12/01 08:56:45;;;;;;;45.30;26.00;;;;;;;-141.97;100.00;46141.25;6183529;23;20542;-83
2023/12/01 08:59:10;;;;;;;58.30;31.40;;;;;;;-141.97;100.00;46006.78;6184125;23;20150;-83
2023/12/01 09:01:35;;;;;;;73.97;39.63;;;;;;;-141.97;100.00;46001.00;6183658;23;20220;-82
2023/12/01 09:04:01;;;;;;;53.97;31.10;;;;;;;-141.97;100.00;46440.97;6183993;23;20182;-84
2023/12/01 09:06:26;;;;;;;43.70;23.23;;;;;;;-141.97;100.00;45985.63;6180715;23;20634;-84
2023/12/01 09:08:52;;;;;;;49.83;26.63;;;;;;;-141.97;100.00;46293.03;6184826;23;20142;-83
2023/12/01 09:11:17;;;;;;;41.20;23.23;;;;;;;-141.97;100.00;45985.63;6182963;23;20142;-83
2023/12/01 09:13:43;;;;;;;74.97;37.13;;;;;;;-141.97;100.00;46066.31;6181942;23;20591;-84
2023/12/01 09:16:08;;;;;;;56.40;32.63;;;;;;;-141.97;99.52;45951.06;6183782;23;20146;-83
2023/12/01 09:18:34;;;;;;;54.83;30.87;;;;;;;-141.97;96.56;45928.00;6184726;23;20181;-84
2023/12/01 09:20:59;;;;;;;38.83;20.10;;;;;;;-141.97;95.09;45866.53;6185086;23;20748;-84
2023/12/01 09:23:25;;;;;;;45.37;21.67;;;;;;;-141.97;94.89;45910.72;6183381;23;20330;-83
2023/12/01 09:25:51;;;;;;;34.90;19.43;;;;;;;-141.97;92.47;45912.63;6181481;23;20198;-84
2023/12/01 09:28:16;;;;;;;39.10;21.60;;;;;;;-141.97;90.16;46433.28;6182054;23;20428;-84
2023/12/01 09:30:42;;;;;;;65.30;30.23;;;;;;;-141.97;91.10;46408.31;6183503;23;20146;-84
2023/12/01 09:33:07;;;;;;;44.97;25.00;;;;;;;-141.97;90.30;46047.13;6183997;23;20193;-83
2023/12/01 09:35:33;;;;;;;46.30;24.60;;;;;;;-141.97;89.96;46050.97;6205694;23;20130;-82
2023/12/01 09:37:58;;;;;;;65.93;29.23;;;;;;;-141.97;89.76;45891.50;6211027;23;20154;-85
2023/12/01 09:40:24;;;;;;;46.90;24.70;;;;;;;-141.97;88.58;45887.66;6198773;23;20607;-83
2023/12/01 09:42:50;;;;;;;34.90;19.80;;;;;;;-141.97;87.73;46020.22;6183766;23;20601;-82
2023/12/01 09:45:22;;;;;;;39.03;23.07;;;;;;;-141.97;89.78;46045.19;6184742;23;20153;-84
2023/12/01 09:47:58;;;;;;;42.87;23.43;;;;;;;-141.97;91.32;46037.50;6183007;23;20146;-83
2023/12/01 09:50:23;;;;;;;49.63;26.50;;;;;;;-141.97;92.23;46389.09;6182993;23;20145;-84
2023/12/01 09:52:51;;;;;;;41.50;24.07;;;;;;;-141.97;93.20;45872.28;6183059;23;20197;-83
2023/12/01 09:55:16;;;;;;;42.43;22.90;;;;;;;-141.97;94.43;46442.91;6182875;23;20138;-82
2023/12/01 09:57:42;;;;;;;38.33;20.90;;;;;;;-141.97;94.81;46047.13;6182512;23;20706;-84
2023/12/01 10:00:11;;;;;;;72.37;37.30;;;;;;;-141.97;96.57;46210.41;6185403;23;20139;-83
2023/12/01 10:02:38;;;;;;;60.70;34.73;;;;;;;-141.97;96.23;46081.69;6184904;23;20150;-84
2023/12/01 10:05:05;;;;;;;33.10;19.13;;;;;;;-141.97;95.49;46039.44;6183273;23;20205;-83
2023/12/01 10:07:30;;;;;;;30.90;17.67;;;;;;;-141.97;94.35;46075.94;6182193;23;20150;-83
2023/12/01 10:09:56;;;;;;;30.30;17.07;;;;;;;-141.97;95.54;46293.03;6182981;23;20165;-83
2023/12/01 10:12:21;;;;;;;59.67;30.17;;;;;;;-141.97;96.12;45912.63;6183025;23;20665;-84
2023/12/01 10:14:47;;;;;;;40.33;20.03;;;;;;;-141.97;96.84;46385.25;6186283;23;20165;-83
2023/12/01 10:17:12;;;;;;;34.10;19.23;;;;;;;-141.97;97.55;46079.78;6188243;23;20200;-82
2023/12/01 10:19:48;;;;;;;66.57;35.17;;;;;;;-141.97;97.01;46056.72;6184240;23;20242;-83
2023/12/01 10:22:16;;;;;;;53.33;27.27;;;;;;;-141.97;97.17;45947.22;6183614;23;20149;-84
2023/12/01 10:25:03;;;;;;;38.50;19.53;;;;;;;-141.97;99.30;46099.00;6190185;23;20249;-82
2023/12/01 10:27:29;;;;;;;34.73;16.87;;;;;;;-141.97;98.98;45818.50;6188098;23;20196;-84
2023/12/01 10:30:13;;;;;;;33.10;17.67;;;;;;;-141.97;98.69;46058.63;6184135;23;20181;-83
2023/12/01 10:32:41;;;;;;;32.50;18.93;;;;;;;-141.97;98.80;46020.22;6183856;23;20146;-83
2023/12/01 10:35:06;;;;;;;35.10;18.40;;;;;;;-141.97;97.43;46408.31;6183008;23;20153;-84
2023/12/01 10:37:32;;;;;;;41.63;22.63;;;;;;;-141.97;97.13;46123.97;6182799;23;20228;-83
2023/12/01 10:40:00;;;;;;;49.67;27.37;;;;;;;-141.97;97.77;45933.75;6185430;23;20158;-85
2023/12/01 10:42:29;;;;;;;44.37;22.40;;;;;;;-141.97;99.02;45901.09;6183829;23;20584;-85
2023/12/01 10:45:06;;;;;;;37.33;19.83;;;;;;;-141.97;100.00;45847.31;6187746;23;20537;-86
2023/12/01 10:47:32;;;;;;;42.63;23.07;;;;;;;-141.97;100.00;46077.84;6186957;23;20211;-89
2023/12/01 10:50:02;;;;;;;41.20;22.97;;;;;;;-141.97;100.00;45818.50;6195624;23;20146;-87
2023/12/01 10:52:33;;;;;;;59.43;29.80;;;;;;;-141.97;100.00;46004.84;6189235;23;20138;-87
2023/12/01 10:54:58;;;;;;;66.60;32.93;;;;;;;-141.97;97.87;46047.13;6186683;23;20142;-85
2023/12/01 10:57:39;;;;;;;45.67;23.80;;;;;;;-141.97;95.72;46047.13;6184191;23;20169;-85
2023/12/01 11:00:17;;;;;;;40.03;20.73;;;;;;;-141.97;93.37;46022.13;6185236;23;20142;-85
2023/12/01 11:02:43;;;;;;;42.07;22.47;;;;;;;-141.97;93.58;45935.69;6183787;23;20156;-84
2023/12/01 11:05:10;;;;;;;42.37;23.57;;;;;;;-141.97;93.90;46462.13;6187685;23;20512;-89
2023/12/01 11:08:00;;;;;;;36.57;19.60;;;;;;;-141.97;93.46;46047.13;6181998;23;20217;-87
2023/12/01 11:10:42;;;;;;;35.67;18.47;;;;;;;-141.97;94.20;46072.09;6185689;23;20599;-85
2023/12/01 11:13:31;;;;;;;33.50;18.50;;;;;;;-141.97;94.69;46066.31;6183063;23;20150;-84
2023/12/01 11:15:57;;;;;;;45.80;24.07;;;;;;;-141.97;93.80;46120.13;6182224;23;20166;-85
2023/12/01 11:18:22;;;;;;;41.33;21.07;;;;;;;-141.97;91.94;45962.59;6188702;23;20154;-86
2023/12/01 11:20:48;;;;;;;42.43;21.57;;;;;;;-141.97;93.19;46016.38;6201631;23;20146;-85
2023/12/01 11:23:19;;;;;;;36.63;18.13;;;;;;;-141.97;93.18;46043.28;6203440;23;20194;-85
2023/12/01 11:25:48;;;;;;;46.07;26.00;;;;;;;-141.97;94.73;46045.19;6185390;23;20185;-87
2023/12/01 11:31:22;;;;;;;32.37;17.17;;;;;;;-141.97;94.58;46060.56;6196362;23;20262;-85
2023/12/01 11:33:52;;;;;;;34.57;18.67;;;;;;;-141.97;95.72;46064.41;6227755;22;20252;-85
2023/12/01 11:36:34;;;;;;;34.00;18.40;;;;;;;-141.97;96.00;46050.97;6210940;23;20142;-86
2023/12/01 11:41:49;;;;;;;50.00;27.07;;;;;;;-141.97;97.85;46054.81;6240256;22;20180;-86
2023/12/01 11:44:23;;;;;;;38.67;20.90;;;;;;;-141.97;97.78;46248.84;6207765;23;20184;-87
2023/12/01 11:46:56;;;;;;;42.03;21.13;;;;;;;-141.97;97.13;46054.81;6217051;23;20148;-87
2023/12/01 11:49:26;;;;;;;36.17;19.07;;;;;;;-141.97;96.17;45947.22;6217402;23;20142;-87